Time;durP1;ratioP1;P1;durP2;ratioP2;P2;SDS_P1;SDS_P2;PMS_P1;PMS_P2;Temp;Humidity;BMP_temperature;BMP_pressure;BME280_temperature;BME280_humidity;BME280_pressure;Samples;Min_cycle;Max_cycle;Signal;HPM_P1;HPM_P2
2021/07/03 00:00:36;;;;;;;;;;;;;;;;;;2075180;28;45915;-72
2021/07/03 00:01:37;;;;;;;;;;;;;;;;;;2081461;28;44993;-71
2021/07/03 00:02:39;;;;;;;;;;;;;;;;;;2080257;28;45464;-70
2021/07/03 00:03:41;;;;;;;;;;;;;;;;;;2080863;28;46081;-70
2021/07/03 00:04:42;;;;;;;;;;;;;;;;;;2080827;28;45958;-71
2021/07/03 00:05:44;;;;;;;;;;;;;;;;;;2080097;28;47374;-71
2021/07/03 00:06:45;;;;;;;;;;;;;;;;;;2080807;28;46201;-71
2021/07/03 00:07:47;;;;;;;;;;;;;;;;;;2081100;28;47320;-70
2021/07/03 00:08:49;;;;;;;;;;;;;;;;;;2080553;28;46705;-70
2021/07/03 00:09:50;;;;;;;;;;;;;;;;;;2072762;28;42653;-72
2021/07/03 00:10:52;;;;;;;;;;;;;;;;;;2072719;28;46723;-73
2021/07/03 00:11:53;;;;;;;;;;;;;;;;;;2080874;28;45452;-73
2021/07/03 00:12:54;;;;;;;;;;;;;;;;;;2080677;28;45311;-73
2021/07/03 00:13:56;;;;;;;;;;;;;;;;;;2080680;28;45491;-70
2021/07/03 00:14:57;;;;;;;;;;;;;;;;;;2080630;28;44168;-71
2021/07/03 00:15:59;;;;;;;;;;;;;;;;;;2080426;28;43996;-70
2021/07/03 00:17:00;;;;;;;;;;;;;;;;;;2072882;28;46494;-71
2021/07/03 00:18:03;;;;;;;;;;;;;;;;;;2073327;28;45663;-71
2021/07/03 00:19:04;;;;;;;;;;;;;;;;;;2081650;28;45660;-71
2021/07/03 00:20:09;;;;;;;;;;;;;;;;;;2081303;28;43393;-71
2021/07/03 00:21:10;;;;;;;;;;;;;;;;;;2081830;28;45193;-71
2021/07/03 00:22:12;;;;;;;;;;;;;;;;;;2089612;28;46495;-71
2021/07/03 00:23:13;;;;;;;;;;;;;;;;;;2082641;28;45306;-71
2021/07/03 00:24:16;;;;;;;;;;;;;;;;;;2081706;28;46741;-71
2021/07/03 00:25:18;;;;;;;;;;;;;;;;;;2080795;28;45247;-71
2021/07/03 00:26:19;;;;;;;;;;;;;;;;;;2080524;28;46195;-73
2021/07/03 00:27:21;;;;;;;;;;;;;;;;;;2080772;28;46480;-73
2021/07/03 00:28:22;;;;;;;;;;;;;;;;;;2072538;28;46463;-73
2021/07/03 00:29:23;;;;;;;;;;;;;;;;;;2073394;28;44929;-73
2021/07/03 00:30:25;;;;;;;;;;;;;;;;;;2080546;28;45735;-73
2021/07/03 00:31:26;;;;;;;;;;;;;;;;;;2080832;28;46478;-74
2021/07/03 00:32:28;;;;;;;;;;;;;;;;;;2072358;28;44914;-73
2021/07/03 00:33:30;;;;;;;;;;;;;;;;;;2080717;28;45266;-74
2021/07/03 00:34:31;;;;;;;;;;;;;;;;;;2080679;28;45322;-74
2021/07/03 00:35:33;;;;;;;;;;;;;;;;;;2072380;28;46522;-74
2021/07/03 00:36:34;;;;;;;;;;;;;;;;;;2072497;28;45350;-72
2021/07/03 00:37:36;;;;;;;;;;;;;;;;;;2072556;28;46876;-72
2021/07/03 00:38:37;;;;;;;;;;;;;;;;;;2080287;28;45306;-72
2021/07/03 00:39:39;;;;;;;;;;;;;;;;;;2080512;28;45741;-72
2021/07/03 00:40:40;;;;;;;;;;;;;;;;;;2080663;28;44183;-73
2021/07/03 00:41:41;;;;;;;;;;;;;;;;;;2080539;28;46586;-73
2021/07/03 00:42:43;;;;;;;;;;;;;;;;;;2080439;28;45682;-73
2021/07/03 00:43:44;;;;;;;;;;;;;;;;;;2080614;28;45375;-73
2021/07/03 00:44:46;;;;;;;;;;;;;;;;;;2072416;28;45627;-73
2021/07/03 00:45:47;;;;;;;;;;;;;;;;;;2072463;28;46507;-73
2021/07/03 00:46:48;;;;;;;;;;;;;;;;;;2080674;28;46418;-73
2021/07/03 00:47:51;;;;;;;;;;;;;;;;;;2080655;28;45116;-73
2021/07/03 00:48:52;;;;;;;;;;;;;;;;;;2072602;28;46507;-74
2021/07/03 00:49:54;;;;;;;;;;;;;;;;;;2080605;28;45371;-73
2021/07/03 00:50:56;;;;;;;;;;;;;;;;;;2080494;28;46725;-74
2021/07/03 00:51:58;;;;;;;;;;;;;;;;;;2072711;28;39077;-74
2021/07/03 00:52:59;;;;;;;;;;;;;;;;;;2072568;28;42984;-73
2021/07/03 00:54:01;;;;;;;;;;;;;;;;;;2080459;28;46085;-73
2021/07/03 00:55:03;;;;;;;;;;;;;;;;;;2080514;28;46850;-73
2021/07/03 00:56:04;;;;;;;;;;;;;;;;;;2072527;28;44651;-74
2021/07/03 00:57:06;;;;;;;;;;;;;;;;;;2080306;28;45912;-73
2021/07/03 00:58:07;;;;;;;;;;;;;;;;;;2080759;28;45682;-73
2021/07/03 00:59:09;;;;;;;;;;;;;;;;;;2088755;28;45866;-73
2021/07/03 01:00:11;;;;;;;;;;;;;;;;;;2080267;28;47295;-73
2021/07/03 01:01:13;;;;;;;;;;;;;;;;;;2072626;28;46608;-73
2021/07/03 01:02:16;;;;;;;;;;;;;;;;;;2080296;28;46194;-73
2021/07/03 01:03:17;;;;;;;;;;;;;;;;;;2080969;28;47236;-74
2021/07/03 01:04:19;;;;;;;;;;;;;;;;;;2081066;28;45943;-73
2021/07/03 01:05:20;;;;;;;;;;;;;;;;;;2081287;28;45856;-73
2021/07/03 01:06:25;;;;;;;;;;;;;;;;;;2080062;28;44827;-73
2021/07/03 01:07:26;;;;;;;;;;;;;;;;;;2080947;28;47139;-73
2021/07/03 01:08:27;;;;;;;;;;;;;;;;;;2080369;28;45734;-73
2021/07/03 01:09:29;;;;;;;;;;;;;;;;;;2072325;28;46349;-73
2021/07/03 01:10:31;;;;;;;;;;;;;;;;;;2080438;28;45020;-73
2021/07/03 01:11:32;;;;;;;;;;;;;;;;;;2080873;28;46211;-75
2021/07/03 01:12:33;;;;;;;;;;;;;;;;;;2080322;28;46088;-75
2021/07/03 01:13:35;;;;;;;;;;;;;;;;;;2080654;28;44797;-75
2021/07/03 01:14:43;;;;;;;;;;;;;;;;;;2080525;28;44179;-76
2021/07/03 01:15:45;;;;;;;;;;;;;;;;;;2072916;28;45312;-75
2021/07/03 01:16:47;;;;;;;;;;;;;;;;;;2072379;28;45971;-75
2021/07/03 01:17:48;;;;;;;;;;;;;;;;;;2072420;28;45153;-74
2021/07/03 01:18:50;;;;;;;;;;;;;;;;;;2080473;28;45157;-74
2021/07/03 01:19:51;;;;;;;;;;;;;;;;;;2080912;28;46491;-72
2021/07/03 01:20:53;;;;;;;;;;;;;;;;;;2081039;28;45438;-72
2021/07/03 01:21:55;;;;;;;;;;;;;;;;;;2080237;28;46532;-72
2021/07/03 01:22:57;;;;;;;;;;;;;;;;;;2080130;28;44044;-72
2021/07/03 01:23:58;;;;;;;;;;;;;;;;;;2080164;28;44977;-71
2021/07/03 01:25:00;;;;;;;;;;;;;;;;;;2072277;28;44503;-72
2021/07/03 01:26:02;;;;;;;;;;;;;;;;;;2080369;28;44980;-72
2021/07/03 01:27:04;;;;;;;;;;;;;;;;;;2080942;28;46766;-72
2021/07/03 01:28:05;;;;;;;;;;;;;;;;;;2080246;28;42838;-72
2021/07/03 01:29:07;;;;;;;;;;;;;;;;;;2080426;28;45202;-72
2021/07/03 01:30:09;;;;;;;;;;;;;;;;;;2088328;28;44229;-72
2021/07/03 01:31:11;;;;;;;;;;;;;;;;;;2080270;28;45243;-72
2021/07/03 01:32:13;;;;;;;;;;;;;;;;;;2072060;28;45200;-71
2021/07/03 01:33:14;;;;;;;;;;;;;;;;;;2072101;28;45260;-71
2021/07/03 01:34:16;;;;;;;;;;;;;;;;;;2064224;28;45429;-71
2021/07/03 01:35:18;;;;;;;;;;;;;;;;;;2080741;28;43772;-71
2021/07/03 01:36:19;;;;;;;;;;;;;;;;;;2079919;28;45365;-71
2021/07/03 01:37:21;;;;;;;;;;;;;;;;;;2063879;28;44626;-71
2021/07/03 01:38:24;;;;;;;;;;;;;;;;;;2080366;28;42662;-71
2021/07/03 01:39:27;;;;;;;;;;;;;;;;;;2087817;28;44169;-71
2021/07/03 01:40:28;;;;;;;;;;;;;;;;;;2072570;28;44653;-71
2021/07/03 01:41:30;;;;;;;;;;;;;;;;;;2072680;28;46545;-71
2021/07/03 01:42:31;;;;;;;;;;;;;;;;;;2072508;28;45703;-71
2021/07/03 01:43:32;;;;;;;;;;;;;;;;;;2071928;28;46821;-71
2021/07/03 01:44:34;;;;;;;;;;;;;;;;;;2080717;28;45227;-71
2021/07/03 01:45:36;;;;;;;;;;;;;;;;;;2080438;28;45370;-71
2021/07/03 01:46:38;;;;;;;;;;;;;;;;;;2072658;28;44008;-71
2021/07/03 01:47:43;;;;;;;;;;;;;;;;;;2072653;28;44701;-71
2021/07/03 01:48:45;;;;;;;;;;;;;;;;;;2072917;28;42998;-70
2021/07/03 01:49:46;;;;;;;;;;;;;;;;;;2064331;28;45238;-70
2021/07/03 01:50:47;;;;;;;;;;;;;;;;;;2081255;28;45335;-70
2021/07/03 01:51:50;;;;;;;;;;;;;;;;;;2080673;28;45215;-71
2021/07/03 01:52:51;;;;;;;;;;;;;;;;;;2081191;28;44457;-71
2021/07/03 01:53:52;;;;;;;;;;;;;;;;;;2088972;28;46826;-71
2021/07/03 01:54:54;;;;;;;;;;;;;;;;;;2072647;28;44929;-73
2021/07/03 01:55:55;;;;;;;;;;;;;;;;;;2071883;28;45457;-72
2021/07/03 01:56:59;;;;;;;;;;;;;;;;;;2080454;28;46582;-72
2021/07/03 01:58:00;;;;;;;;;;;;;;;;;;2080121;28;39653;-72
2021/07/03 01:59:02;;;;;;;;;;;;;;;;;;2072203;28;46181;-73
2021/07/03 02:00:08;;;;;;;;;;;;;;;;;;2088587;28;45773;-72
2021/07/03 02:01:09;;;;;;;;;;;;;;;;;;2079675;28;45760;-72
2021/07/03 02:02:11;;;;;;;;;;;;;;;;;;2072054;28;45663;-72
2021/07/03 02:03:12;;;;;;;;;;;;;;;;;;2088676;28;46601;-73
2021/07/03 02:04:14;;;;;;;;;;;;;;;;;;2088391;28;45824;-73
2021/07/03 02:05:15;;;;;;;;;;;;;;;;;;2072747;28;45790;-73
2021/07/03 02:06:19;;;;;;;;;;;;;;;;;;2072423;28;47174;-73
2021/07/03 02:07:21;;;;;;;;;;;;;;;;;;2071995;28;46137;-73
2021/07/03 02:08:22;;;;;;;;;;;;;;;;;;2072151;28;45805;-73
2021/07/03 02:09:24;;;;;;;;;;;;;;;;;;2072739;28;45780;-73
2021/07/03 02:10:25;;;;;;;;;;;;;;;;;;2088647;28;44746;-73
2021/07/03 02:11:26;;;;;;;;;;;;;;;;;;2080221;28;45825;-73
2021/07/03 02:12:28;;;;;;;;;;;;;;;;;;2072087;28;45609;-72
2021/07/03 02:13:30;;;;;;;;;;;;;;;;;;2080466;28;45740;-72
2021/07/03 02:14:31;;;;;;;;;;;;;;;;;;2088619;28;43718;-72
2021/07/03 02:15:33;;;;;;;;;;;;;;;;;;2088280;28;45411;-72
2021/07/03 02:16:35;;;;;;;;;;;;;;;;;;2072463;28;45051;-72
2021/07/03 02:17:37;;;;;;;;;;;;;;;;;;2064420;28;47045;-72
2021/07/03 02:18:38;;;;;;;;;;;;;;;;;;2065170;28;44727;-73
2021/07/03 02:19:40;;;;;;;;;;;;;;;;;;2073430;28;44603;-72
2021/07/03 02:20:41;;;;;;;;;;;;;;;;;;2073431;28;46494;-73
2021/07/03 02:21:43;;;;;;;;;;;;;;;;;;2089336;28;45301;-72
2021/07/03 02:22:44;;;;;;;;;;;;;;;;;;2081311;28;46378;-73
2021/07/03 02:23:46;;;;;;;;;;;;;;;;;;2065518;28;46821;-72
2021/07/03 02:24:48;;;;;;;;;;;;;;;;;;2081839;28;45270;-72
2021/07/03 02:25:49;;;;;;;;;;;;;;;;;;2081277;28;46477;-72
2021/07/03 02:26:50;;;;;;;;;;;;;;;;;;2073230;28;45289;-72
2021/07/03 02:27:52;;;;;;;;;;;;;;;;;;2074226;28;44805;-72
2021/07/03 02:28:53;;;;;;;;;;;;;;;;;;2073787;28;46477;-73
2021/07/03 02:29:55;;;;;;;;;;;;;;;;;;2073374;28;46547;-72
2021/07/03 02:30:56;;;;;;;;;;;;;;;;;;2078112;28;45127;-73
2021/07/03 02:31:58;;;;;;;;;;;;;;;;;;2081459;28;46819;-72
2021/07/03 02:33:00;;;;;;;;;;;;;;;;;;2073381;28;46467;-72
2021/07/03 02:34:02;;;;;;;;;;;;;;;;;;2073451;28;44281;-73
2021/07/03 02:35:03;;;;;;;;;;;;;;;;;;2081388;28;46286;-73
2021/07/03 02:36:05;;;;;;;;;;;;;;;;;;2081804;28;43958;-73
2021/07/03 02:37:06;;;;;;;;;;;;;;;;;;2082066;28;45510;-72
2021/07/03 02:38:08;;;;;;;;;;;;;;;;;;2081550;28;46473;-72
2021/07/03 02:39:09;;;;;;;;;;;;;;;;;;2081543;28;46432;-72
2021/07/03 02:40:12;;;;;;;;;;;;;;;;;;2081659;28;46202;-72
2021/07/03 02:41:14;;;;;;;;;;;;;;;;;;2089744;28;46466;-72
2021/07/03 02:42:15;;;;;;;;;;;;;;;;;;2081433;28;45490;-72
2021/07/03 02:43:17;;;;;;;;;;;;;;;;;;2073924;28;45084;-72
2021/07/03 02:44:18;;;;;;;;;;;;;;;;;;2073339;28;46288;-72
2021/07/03 02:45:20;;;;;;;;;;;;;;;;;;2081436;28;44001;-72
2021/07/03 02:46:21;;;;;;;;;;;;;;;;;;2082035;28;46573;-72
2021/07/03 02:47:23;;;;;;;;;;;;;;;;;;2081525;28;45069;-72
2021/07/03 02:48:25;;;;;;;;;;;;;;;;;;2081603;28;44306;-72
2021/07/03 02:49:26;;;;;;;;;;;;;;;;;;2081956;28;46532;-72
2021/07/03 02:50:28;;;;;;;;;;;;;;;;;;2082198;28;46596;-72
2021/07/03 02:51:29;;;;;;;;;;;;;;;;;;2081349;28;45262;-72
2021/07/03 02:52:31;;;;;;;;;;;;;;;;;;2081410;28;45378;-72
2021/07/03 02:53:32;;;;;;;;;;;;;;;;;;2082324;28;45154;-72
2021/07/03 02:54:33;;;;;;;;;;;;;;;;;;2082038;28;46595;-72
2021/07/03 02:55:35;;;;;;;;;;;;;;;;;;2081695;28;45394;-72
2021/07/03 02:56:36;;;;;;;;;;;;;;;;;;2081395;28;46446;-71
2021/07/03 02:57:38;;;;;;;;;;;;;;;;;;2081357;28;45679;-71
2021/07/03 02:58:40;;;;;;;;;;;;;;;;;;2081924;28;46469;-71
2021/07/03 02:59:41;;;;;;;;;;;;;;;;;;2081384;28;45800;-71
2021/07/03 03:00:43;;;;;;;;;;;;;;;;;;2081425;28;42386;-71
2021/07/03 03:01:44;;;;;;;;;;;;;;;;;;2081955;28;45773;-71
2021/07/03 03:02:46;;;;;;;;;;;;;;;;;;2081866;28;46885;-71
2021/07/03 03:03:47;;;;;;;;;;;;;;;;;;2082571;28;38447;-71
2021/07/03 03:04:49;;;;;;;;;;;;;;;;;;2081945;28;44016;-71
2021/07/03 03:05:51;;;;;;;;;;;;;;;;;;2081476;28;45712;-72
2021/07/03 03:06:52;;;;;;;;;;;;;;;;;;2081909;28;44653;-71
2021/07/03 03:07:53;;;;;;;;;;;;;;;;;;2081273;28;47292;-71
2021/07/03 03:08:55;;;;;;;;;;;;;;;;;;2081237;28;45877;-71
2021/07/03 03:09:56;;;;;;;;;;;;;;;;;;2081865;28;47052;-71
2021/07/03 03:10:58;;;;;;;;;;;;;;;;;;2081312;28;44947;-71
2021/07/03 03:11:59;;;;;;;;;;;;;;;;;;2073032;28;47082;-73
2021/07/03 03:13:01;;;;;;;;;;;;;;;;;;2081252;28;47453;-73
2021/07/03 03:14:02;;;;;;;;;;;;;;;;;;2081150;28;46202;-72
2021/07/03 03:15:04;;;;;;;;;;;;;;;;;;2072873;28;45904;-72
2021/07/03 03:16:06;;;;;;;;;;;;;;;;;;2073318;28;47161;-72
2021/07/03 03:17:08;;;;;;;;;;;;;;;;;;2081163;28;46025;-71
2021/07/03 03:18:09;;;;;;;;;;;;;;;;;;2081189;28;45858;-71
2021/07/03 03:19:10;;;;;;;;;;;;;;;;;;2081071;28;44358;-71
2021/07/03 03:20:12;;;;;;;;;;;;;;;;;;2073022;28;44572;-71
2021/07/03 03:21:14;;;;;;;;;;;;;;;;;;2080988;28;47058;-71
2021/07/03 03:22:15;;;;;;;;;;;;;;;;;;2081723;28;46979;-71
2021/07/03 03:23:16;;;;;;;;;;;;;;;;;;2081767;28;45812;-71
2021/07/03 03:24:18;;;;;;;;;;;;;;;;;;2081784;28;47071;-71
2021/07/03 03:25:19;;;;;;;;;;;;;;;;;;2082106;28;44439;-71
2021/07/03 03:26:20;;;;;;;;;;;;;;;;;;2080928;28;46736;-71
2021/07/03 03:27:22;;;;;;;;;;;;;;;;;;2081437;28;46489;-71
2021/07/03 03:28:23;;;;;;;;;;;;;;;;;;2081159;28;46253;-72
2021/07/03 03:29:25;;;;;;;;;;;;;;;;;;2080306;28;45223;-71
2021/07/03 03:30:26;;;;;;;;;;;;;;;;;;2081215;28;45315;-72
2021/07/03 03:31:28;;;;;;;;;;;;;;;;;;2081143;28;46357;-72
2021/07/03 03:32:29;;;;;;;;;;;;;;;;;;2081105;28;45720;-72
2021/07/03 03:33:31;;;;;;;;;;;;;;;;;;2081253;28;44392;-72
2021/07/03 03:34:46;;;;;;;;;;;;;;;;;;2081071;28;46642;-72
2021/07/03 03:35:48;;;;;;;;;;;;;;;;;;2081019;28;44294;-72
2021/07/03 03:36:49;;;;;;;;;;;;;;;;;;2081650;28;45284;-72
2021/07/03 03:37:50;;;;;;;;;;;;;;;;;;2081465;28;45099;-72
2021/07/03 03:38:52;;;;;;;;;;;;;;;;;;2073061;28;45342;-72
2021/07/03 03:39:53;;;;;;;;;;;;;;;;;;2081189;28;46524;-74
2021/07/03 03:40:55;;;;;;;;;;;;;;;;;;2081907;28;45129;-74
2021/07/03 03:41:56;;;;;;;;;;;;;;;;;;2081076;28;45165;-72
2021/07/03 03:42:58;;;;;;;;;;;;;;;;;;2080931;28;45600;-72
2021/07/03 03:43:59;;;;;;;;;;;;;;;;;;2081073;28;44036;-72
2021/07/03 03:45:00;;;;;;;;;;;;;;;;;;2073042;28;46292;-72
2021/07/03 03:46:02;;;;;;;;;;;;;;;;;;2072863;28;46470;-72
2021/07/03 03:47:03;;;;;;;;;;;;;;;;;;2073397;28;46728;-72
2021/07/03 03:48:05;;;;;;;;;;;;;;;;;;2072938;28;45453;-73
2021/07/03 03:49:07;;;;;;;;;;;;;;;;;;2081094;28;45289;-72
2021/07/03 03:50:09;;;;;;;;;;;;;;;;;;2081036;28;45304;-72
2021/07/03 03:51:10;;;;;;;;;;;;;;;;;;2081048;28;46468;-73
2021/07/03 03:52:12;;;;;;;;;;;;;;;;;;2081501;28;45671;-73
2021/07/03 03:53:14;;;;;;;;;;;;;;;;;;2089234;28;46675;-73
2021/07/03 03:54:16;;;;;;;;;;;;;;;;;;2081096;28;45659;-73
2021/07/03 03:55:17;;;;;;;;;;;;;;;;;;2073111;28;45376;-73
2021/07/03 03:56:19;;;;;;;;;;;;;;;;;;2080975;28;46511;-73
2021/07/03 03:57:24;;;;;;;;;;;;;;;;;;2089136;28;47079;-73
2021/07/03 03:58:25;;;;;;;;;;;;;;;;;;2080876;28;46827;-73
2021/07/03 03:59:27;;;;;;;;;;;;;;;;;;2081087;28;44281;-73
2021/07/03 04:00:28;;;;;;;;;;;;;;;;;;2080031;28;45984;-75
2021/07/03 04:01:29;;;;;;;;;;;;;;;;;;2064726;28;46468;-75
2021/07/03 04:02:31;;;;;;;;;;;;;;;;;;2072652;28;45461;-76
2021/07/03 04:03:32;;;;;;;;;;;;;;;;;;2072808;28;44427;-75
2021/07/03 04:04:34;;;;;;;;;;;;;;;;;;2064784;28;43742;-76
2021/07/03 04:05:35;;;;;;;;;;;;;;;;;;2072603;28;45399;-75
2021/07/03 04:06:36;;;;;;;;;;;;;;;;;;2080988;28;45278;-76
2021/07/03 04:07:38;;;;;;;;;;;;;;;;;;2072832;28;46929;-76
2021/07/03 04:08:39;;;;;;;;;;;;;;;;;;2072833;28;45800;-76
2021/07/03 04:09:41;;;;;;;;;;;;;;;;;;2073110;28;39507;-76
2021/07/03 04:10:42;;;;;;;;;;;;;;;;;;2072834;28;44613;-76
2021/07/03 04:11:44;;;;;;;;;;;;;;;;;;2072889;28;45881;-76
2021/07/03 04:12:45;;;;;;;;;;;;;;;;;;2072711;28;45856;-76
2021/07/03 04:13:47;;;;;;;;;;;;;;;;;;2080839;28;47020;-76
2021/07/03 04:14:48;;;;;;;;;;;;;;;;;;2072497;28;45916;-76
2021/07/03 04:15:50;;;;;;;;;;;;;;;;;;2064677;28;44536;-76
2021/07/03 04:16:51;;;;;;;;;;;;;;;;;;2064845;28;44426;-76
2021/07/03 04:17:53;;;;;;;;;;;;;;;;;;2072990;28;45847;-76
2021/07/03 04:18:54;;;;;;;;;;;;;;;;;;2080751;28;47109;-76
2021/07/03 04:19:56;;;;;;;;;;;;;;;;;;2072663;28;46016;-76
2021/07/03 04:20:57;;;;;;;;;;;;;;;;;;2072882;28;45823;-75
2021/07/03 04:21:58;;;;;;;;;;;;;;;;;;2080611;28;47249;-75
2021/07/03 04:23:00;;;;;;;;;;;;;;;;;;2072731;28;46000;-75
2021/07/03 04:24:01;;;;;;;;;;;;;;;;;;2072933;28;46037;-75
2021/07/03 04:25:04;;;;;;;;;;;;;;;;;;2072720;28;46092;-75
2021/07/03 04:26:06;;;;;;;;;;;;;;;;;;2064687;28;46868;-75
2021/07/03 04:27:07;;;;;;;;;;;;;;;;;;2072839;28;45746;-75
2021/07/03 04:28:09;;;;;;;;;;;;;;;;;;2072633;28;47155;-75
2021/07/03 04:29:10;;;;;;;;;;;;;;;;;;2072619;28;46106;-75
2021/07/03 04:30:12;;;;;;;;;;;;;;;;;;2073192;28;45870;-75
2021/07/03 04:31:13;;;;;;;;;;;;;;;;;;2073031;28;47038;-74
2021/07/03 04:32:15;;;;;;;;;;;;;;;;;;2072728;28;45142;-75
2021/07/03 04:33:16;;;;;;;;;;;;;;;;;;2080808;28;45315;-75
2021/07/03 04:34:18;;;;;;;;;;;;;;;;;;2080716;28;45173;-75
2021/07/03 04:35:19;;;;;;;;;;;;;;;;;;2080831;28;45044;-75
2021/07/03 04:36:21;;;;;;;;;;;;;;;;;;2080506;28;45435;-75
2021/07/03 04:37:22;;;;;;;;;;;;;;;;;;2080848;28;45216;-75
2021/07/03 04:38:24;;;;;;;;;;;;;;;;;;2072579;28;46538;-75
2021/07/03 04:39:26;;;;;;;;;;;;;;;;;;2072659;28;46662;-75
2021/07/03 04:40:27;;;;;;;;;;;;;;;;;;2073086;28;46498;-76
2021/07/03 04:41:28;;;;;;;;;;;;;;;;;;2080930;28;44119;-78
2021/07/03 04:42:30;;;;;;;;;;;;;;;;;;2072365;28;44324;-77
2021/07/03 04:43:33;;;;;;;;;;;;;;;;;;2072908;28;45244;-77
2021/07/03 04:44:34;;;;;;;;;;;;;;;;;;2072517;28;45572;-77
2021/07/03 04:45:36;;;;;;;;;;;;;;;;;;2072720;28;45642;-77
2021/07/03 04:46:37;;;;;;;;;;;;;;;;;;2072618;28;43985;-77
2021/07/03 04:47:38;;;;;;;;;;;;;;;;;;2072598;28;44050;-76
2021/07/03 04:48:40;;;;;;;;;;;;;;;;;;2073253;28;44477;-77
2021/07/03 04:49:41;;;;;;;;;;;;;;;;;;2072420;28;45406;-76
2021/07/03 04:50:43;;;;;;;;;;;;;;;;;;2072559;28;44044;-76
2021/07/03 04:51:44;;;;;;;;;;;;;;;;;;2072553;28;46480;-75
2021/07/03 04:52:46;;;;;;;;;;;;;;;;;;2080778;28;45282;-76
2021/07/03 04:53:48;;;;;;;;;;;;;;;;;;2080643;28;45289;-75
2021/07/03 04:54:49;;;;;;;;;;;;;;;;;;2080628;28;45495;-75
2021/07/03 04:55:50;;;;;;;;;;;;;;;;;;2072336;28;44430;-75
2021/07/03 04:57:06;;;;;;;;;;;;;;;;;;2072434;28;45835;-75
2021/07/03 04:58:08;;;;;;;;;;;;;;;;;;2074690;28;45495;-75
2021/07/03 04:59:09;;;;;;;;;;;;;;;;;;2080677;28;45250;-75
2021/07/03 05:00:11;;;;;;;;;;;;;;;;;;2072489;28;45226;-75
2021/07/03 05:01:13;;;;;;;;;;;;;;;;;;2072610;28;45302;-76
2021/07/03 05:02:14;;;;;;;;;;;;;;;;;;2080344;28;46867;-75
2021/07/03 05:03:16;;;;;;;;;;;;;;;;;;2072420;28;44297;-75
2021/07/03 05:04:17;;;;;;;;;;;;;;;;;;2072397;28;45633;-75
2021/07/03 05:05:19;;;;;;;;;;;;;;;;;;2073167;28;45746;-75
2021/07/03 05:06:20;;;;;;;;;;;;;;;;;;2072298;28;44958;-75
2021/07/03 05:07:21;;;;;;;;;;;;;;;;;;2065760;28;45622;-75
2021/07/03 05:08:23;;;;;;;;;;;;;;;;;;2080665;28;46763;-75
2021/07/03 05:09:24;;;;;;;;;;;;;;;;;;2080725;28;46886;-73
2021/07/03 05:10:26;;;;;;;;;;;;;;;;;;2080618;28;45483;-73
2021/07/03 05:11:27;;;;;;;;;;;;;;;;;;2072967;28;43734;-73
2021/07/03 05:12:29;;;;;;;;;;;;;;;;;;2072352;28;46658;-72
2021/07/03 05:13:30;;;;;;;;;;;;;;;;;;2080479;28;45278;-72
2021/07/03 05:14:32;;;;;;;;;;;;;;;;;;2081259;28;45776;-72
2021/07/03 05:15:33;;;;;;;;;;;;;;;;;;2080408;28;38792;-72
2021/07/03 05:16:35;;;;;;;;;;;;;;;;;;2072581;28;46180;-72
2021/07/03 05:17:37;;;;;;;;;;;;;;;;;;2080515;28;46581;-73
2021/07/03 05:18:39;;;;;;;;;;;;;;;;;;2081005;28;47653;-73
2021/07/03 05:19:40;;;;;;;;;;;;;;;;;;2088676;28;47199;-73
2021/07/03 05:20:42;;;;;;;;;;;;;;;;;;2080553;28;46050;-72
2021/07/03 05:21:44;;;;;;;;;;;;;;;;;;2072625;28;45782;-72
2021/07/03 05:22:45;;;;;;;;;;;;;;;;;;2080393;28;45922;-72
2021/07/03 05:23:47;;;;;;;;;;;;;;;;;;2081185;28;46098;-72
2021/07/03 05:24:48;;;;;;;;;;;;;;;;;;2080545;28;44215;-73
2021/07/03 05:25:52;;;;;;;;;;;;;;;;;;2080348;28;46466;-74
2021/07/03 05:26:54;;;;;;;;;;;;;;;;;;2072859;28;44418;-73
2021/07/03 05:27:55;;;;;;;;;;;;;;;;;;2072518;28;47080;-73
2021/07/03 05:28:57;;;;;;;;;;;;;;;;;;2080740;28;47225;-73
2021/07/03 05:29:58;;;;;;;;;;;;;;;;;;2089074;28;45800;-74
2021/07/03 05:31:00;;;;;;;;;;;;;;;;;;2088703;28;46287;-73
2021/07/03 05:32:01;;;;;;;;;;;;;;;;;;2080062;28;47751;-74
2021/07/03 05:33:03;;;;;;;;;;;;;;;;;;2072345;28;46972;-74
2021/07/03 05:34:04;;;;;;;;;;;;;;;;;;2072286;28;46938;-74
2021/07/03 05:35:06;;;;;;;;;;;;;;;;;;2080572;28;46892;-74
2021/07/03 05:36:07;;;;;;;;;;;;;;;;;;2080430;28;47483;-74
2021/07/03 05:37:09;;;;;;;;;;;;;;;;;;2080805;28;46225;-74
2021/07/03 05:38:10;;;;;;;;;;;;;;;;;;2072454;28;44146;-74
2021/07/03 05:39:12;;;;;;;;;;;;;;;;;;2080881;28;43188;-74
2021/07/03 05:40:15;;;;;;;;;;;;;;;;;;2080919;28;44085;-74
2021/07/03 05:41:17;;;;;;;;;;;;;;;;;;2072782;28;43649;-74
2021/07/03 05:42:18;;;;;;;;;;;;;;;;;;2072680;28;44837;-75
2021/07/03 05:43:20;;;;;;;;;;;;;;;;;;2080461;28;45297;-74
2021/07/03 05:44:23;;;;;;;;;;;;;;;;;;2080420;28;46554;-74
2021/07/03 05:45:25;;;;;;;;;;;;;;;;;;2080522;28;45258;-74
2021/07/03 05:46:26;;;;;;;;;;;;;;;;;;2080911;28;45143;-73
2021/07/03 05:47:28;;;;;;;;;;;;;;;;;;2080477;28;46802;-74
2021/07/03 05:48:29;;;;;;;;;;;;;;;;;;2080506;28;45218;-74
2021/07/03 05:49:31;;;;;;;;;;;;;;;;;;2081048;28;45201;-74
2021/07/03 05:50:32;;;;;;;;;;;;;;;;;;2080510;28;45167;-74
2021/07/03 05:51:35;;;;;;;;;;;;;;;;;;2080500;28;46624;-74
2021/07/03 05:52:36;;;;;;;;;;;;;;;;;;2080617;28;45317;-74
2021/07/03 05:53:40;;;;;;;;;;;;;;;;;;2074086;28;44178;-74
2021/07/03 05:54:41;;;;;;;;;;;;;;;;;;2081870;28;46496;-73
2021/07/03 05:55:43;;;;;;;;;;;;;;;;;;2081874;28;46438;-74
2021/07/03 05:56:44;;;;;;;;;;;;;;;;;;2081762;28;46369;-73
2021/07/03 05:57:46;;;;;;;;;;;;;;;;;;2082028;28;46572;-73
2021/07/03 05:58:48;;;;;;;;;;;;;;;;;;2082273;28;44888;-74
2021/07/03 05:59:50;;;;;;;;;;;;;;;;;;2081911;28;46380;-73
2021/07/03 06:00:51;;;;;;;;;;;;;;;;;;2081890;28;45286;-73
2021/07/03 06:01:52;;;;;;;;;;;;;;;;;;2076898;28;45316;-74
2021/07/03 06:02:54;;;;;;;;;;;;;;;;;;2074079;28;45712;-73
2021/07/03 06:03:59;;;;;;;;;;;;;;;;;;2074112;28;47002;-74
2021/07/03 06:05:00;;;;;;;;;;;;;;;;;;2073642;28;46491;-74
2021/07/03 06:06:01;;;;;;;;;;;;;;;;;;2073460;28;44155;-74
2021/07/03 06:07:03;;;;;;;;;;;;;;;;;;2073912;28;46912;-73
2021/07/03 06:08:05;;;;;;;;;;;;;;;;;;2074240;28;44354;-74
2021/07/03 06:09:06;;;;;;;;;;;;;;;;;;2081970;28;45148;-74
2021/07/03 06:10:08;;;;;;;;;;;;;;;;;;2081717;28;46572;-74
2021/07/03 06:11:09;;;;;;;;;;;;;;;;;;2073811;28;43621;-74
2021/07/03 06:12:11;;;;;;;;;;;;;;;;;;2073417;28;44190;-73
2021/07/03 06:13:12;;;;;;;;;;;;;;;;;;2081522;28;45450;-73
2021/07/03 06:14:14;;;;;;;;;;;;;;;;;;2081454;28;46847;-74
2021/07/03 06:15:16;;;;;;;;;;;;;;;;;;2081395;28;45374;-73
2021/07/03 06:16:17;;;;;;;;;;;;;;;;;;2073159;28;45816;-73
2021/07/03 06:17:19;;;;;;;;;;;;;;;;;;2073567;28;45397;-73
2021/07/03 06:18:20;;;;;;;;;;;;;;;;;;2073530;28;44544;-73
2021/07/03 06:19:24;;;;;;;;;;;;;;;;;;2073560;28;46848;-72
2021/07/03 06:20:25;;;;;;;;;;;;;;;;;;2073794;28;43188;-73
2021/07/03 06:21:27;;;;;;;;;;;;;;;;;;2074383;28;37701;-72
2021/07/03 06:22:29;;;;;;;;;;;;;;;;;;2073313;28;46190;-74
2021/07/03 06:23:30;;;;;;;;;;;;;;;;;;2073398;28;45852;-76
2021/07/03 06:24:34;;;;;;;;;;;;;;;;;;2074124;28;45431;-75
2021/07/03 06:25:36;;;;;;;;;;;;;;;;;;2073795;28;46119;-74
2021/07/03 06:26:37;;;;;;;;;;;;;;;;;;2074183;28;45710;-74
2021/07/03 06:27:39;;;;;;;;;;;;;;;;;;2074136;28;47184;-74
2021/07/03 06:28:40;;;;;;;;;;;;;;;;;;2073464;28;45902;-74
2021/07/03 06:29:42;;;;;;;;;;;;;;;;;;2073576;28;43270;-74
2021/07/03 06:30:43;;;;;;;;;;;;;;;;;;2074043;28;46287;-74
2021/07/03 06:31:45;;;;;;;;;;;;;;;;;;2073981;28;45882;-73
2021/07/03 06:32:46;;;;;;;;;;;;;;;;;;2080931;28;46110;-74
2021/07/03 06:33:48;;;;;;;;;;;;;;;;;;2081503;28;45943;-74
2021/07/03 06:34:49;;;;;;;;;;;;;;;;;;2074004;28;46321;-73
2021/07/03 06:35:51;;;;;;;;;;;;;;;;;;2073225;28;47122;-73
2021/07/03 06:36:52;;;;;;;;;;;;;;;;;;2065330;28;47047;-72
2021/07/03 06:37:54;;;;;;;;;;;;;;;;;;2073376;28;46011;-73
2021/07/03 06:38:55;;;;;;;;;;;;;;;;;;2073362;28;47443;-72
2021/07/03 06:39:57;;;;;;;;;;;;;;;;;;2065407;28;46896;-72
2021/07/03 06:40:58;;;;;;;;;;;;;;;;;;2065646;28;45212;-72
2021/07/03 06:41:59;;;;;;;;;;;;;;;;;;2065240;28;45788;-73
2021/07/03 06:43:01;;;;;;;;;;;;;;;;;;2065686;28;45751;-73
2021/07/03 06:44:03;;;;;;;;;;;;;;;;;;2065415;28;45253;-73
2021/07/03 06:45:04;;;;;;;;;;;;;;;;;;2073400;28;45287;-72
2021/07/03 06:46:06;;;;;;;;;;;;;;;;;;2081194;28;46361;-72
2021/07/03 06:47:14;;;;;;;;;;;;;;;;;;2080949;28;44373;-72
2021/07/03 06:48:16;;;;;;;;;;;;;;;;;;2066148;28;44622;-72
2021/07/03 06:49:17;;;;;;;;;;;;;;;;;;2065236;28;46428;-72
2021/07/03 06:50:19;;;;;;;;;;;;;;;;;;2065197;28;45561;-73
2021/07/03 06:51:21;;;;;;;;;;;;;;;;;;2073490;28;46284;-73
2021/07/03 06:52:22;;;;;;;;;;;;;;;;;;2073248;28;46427;-72
2021/07/03 06:53:24;;;;;;;;;;;;;;;;;;2065412;28;45310;-74
2021/07/03 06:54:25;;;;;;;;;;;;;;;;;;2073300;28;45165;-72
2021/07/03 06:55:27;;;;;;;;;;;;;;;;;;2073741;28;45319;-72
2021/07/03 06:56:28;;;;;;;;;;;;;;;;;;2079717;28;45331;-72
2021/07/03 06:57:30;;;;;;;;;;;;;;;;;;2089677;28;43942;-72
2021/07/03 06:58:31;;;;;;;;;;;;;;;;;;2081645;28;46604;-72
2021/07/03 06:59:33;;;;;;;;;;;;;;;;;;2081578;28;45361;-72
2021/07/03 07:00:34;;;;;;;;;;;;;;;;;;2081289;28;44644;-72
2021/07/03 07:01:35;;;;;;;;;;;;;;;;;;2082711;28;45109;-73